SUL6892 SBBR-SBSJ
Flight info
| Callsign | SUL6892 |
|---|---|
| Flight time | 1h 17m |
| Altitude | 36000 |
| Route | ENRUR UZ38 VUNOX |
| Aircraft | B738/M-SDFGIKLORWX/LB1 |
Departure
| Time | 2026-04-24 20:07 |
|---|---|
| Airport | Presidente Juscelino Kubitschek International Airport (SBBR) |
Arrival
| Time | 2026-04-24 21:25 |
|---|---|
| Airport | Professor Urbano Ernesto Stumpf Airport (SBSJ) |
| Time | Latitude | Longitude | Altitude | Speed | Heading |
|---|---|---|---|---|---|
| 2026-04-24 19:32 | -15.86855 | -47.92654 | 3467 ft | 0 kts | 176° |
| 2026-04-24 19:59 | -15.86842 | -47.92655 | 3467 ft | 4 kts | 170° |
| 2026-04-24 20:00 | -15.86817 | -47.92663 | 3467 ft | 4 kts | 142° |
| 2026-04-24 20:00 | -15.86803 | -47.92683 | 3464 ft | 4 kts | 95° |
| 2026-04-24 20:00 | -15.86803 | -47.92695 | 3466 ft | 1 kts | 86° |
| 2026-04-24 20:04 | -15.86803 | -47.92694 | 3466 ft | 0 kts | 86° |
| 2026-04-24 20:04 | -15.86802 | -47.92682 | 3464 ft | 4 kts | 86° |
| 2026-04-24 20:04 | -15.86799 | -47.92637 | 3467 ft | 9 kts | 86° |
| 2026-04-24 20:04 | -15.86793 | -47.92559 | 3468 ft | 12 kts | 78° |
| 2026-04-24 20:05 | -15.86736 | -47.92500 | 3470 ft | 12 kts | 29° |
| 2026-04-24 20:05 | -15.86665 | -47.92460 | 3471 ft | 11 kts | 28° |
| 2026-04-24 20:05 | -15.86591 | -47.92419 | 3470 ft | 13 kts | 28° |
| 2026-04-24 20:05 | -15.86514 | -47.92355 | 3468 ft | 15 kts | 49° |
| 2026-04-24 20:06 | -15.86449 | -47.92261 | 3467 ft | 17 kts | 56° |
| 2026-04-24 20:06 | -15.86380 | -47.92157 | 3465 ft | 18 kts | 56° |
| 2026-04-24 20:06 | -15.86318 | -47.92043 | 3465 ft | 18 kts | 73° |
| 2026-04-24 20:06 | -15.86304 | -47.91914 | 3464 ft | 20 kts | 85° |
| 2026-04-24 20:07 | -15.86293 | -47.91747 | 3462 ft | 60 kts | 86° |
| 2026-04-24 20:07 | -15.86223 | -47.90683 | 3484 ft | 155 kts | 86° |
| 2026-04-24 20:07 | -15.86131 | -47.89428 | 3910 ft | 184 kts | 85° |
| 2026-04-24 20:07 | -15.86097 | -47.88098 | 4888 ft | 187 kts | 97° |
| 2026-04-24 20:08 | -15.86600 | -47.86825 | 5658 ft | 200 kts | 126° |
| 2026-04-24 20:08 | -15.87743 | -47.85894 | 5975 ft | 227 kts | 162° |
| 2026-04-24 20:08 | -15.89401 | -47.85821 | 6203 ft | 253 kts | 185° |
| 2026-04-24 20:08 | -15.91257 | -47.85948 | 6481 ft | 279 kts | 181° |
| 2026-04-24 20:09 | -15.93234 | -47.85958 | 7164 ft | 287 kts | 178° |
| 2026-04-24 20:09 | -15.95240 | -47.85860 | 7972 ft | 291 kts | 176° |
| 2026-04-24 20:09 | -15.97271 | -47.85684 | 8662 ft | 295 kts | 175° |
| 2026-04-24 20:09 | -15.99292 | -47.85455 | 9381 ft | 292 kts | 174° |
| 2026-04-24 20:10 | -16.01328 | -47.85193 | 10130 ft | 298 kts | 173° |
| 2026-04-24 20:10 | -16.03433 | -47.84908 | 10589 ft | 316 kts | 173° |
| 2026-04-24 20:10 | -16.05708 | -47.84596 | 10751 ft | 341 kts | 173° |
| 2026-04-24 20:10 | -16.08141 | -47.84328 | 11016 ft | 359 kts | 179° |
| 2026-04-24 20:11 | -16.10662 | -47.84231 | 11574 ft | 366 kts | 173° |
| 2026-04-24 20:11 | -16.13132 | -47.83551 | 12253 ft | 370 kts | 158° |
| 2026-04-24 20:11 | -16.15478 | -47.82420 | 12936 ft | 373 kts | 155° |
| 2026-04-24 20:11 | -16.17799 | -47.81256 | 13526 ft | 377 kts | 154° |
| 2026-04-24 20:12 | -16.20186 | -47.80059 | 14101 ft | 382 kts | 155° |
| 2026-04-24 20:12 | -16.22594 | -47.78863 | 14610 ft | 386 kts | 155° |
| 2026-04-24 20:12 | -16.25040 | -47.77660 | 15203 ft | 388 kts | 155° |
| 2026-04-24 20:12 | -16.27495 | -47.76464 | 15800 ft | 390 kts | 155° |
| 2026-04-24 20:13 | -16.29964 | -47.75267 | 16360 ft | 393 kts | 155° |
| 2026-04-24 20:13 | -16.32454 | -47.74064 | 16901 ft | 395 kts | 154° |
| 2026-04-24 20:13 | -16.34960 | -47.72855 | 17439 ft | 398 kts | 154° |
| 2026-04-24 20:13 | -16.37479 | -47.71640 | 17967 ft | 401 kts | 154° |
| 2026-04-24 20:14 | -16.40019 | -47.70416 | 18468 ft | 403 kts | 154° |
| 2026-04-24 20:14 | -16.42574 | -47.69185 | 18901 ft | 406 kts | 154° |
| 2026-04-24 20:14 | -16.45144 | -47.67946 | 19323 ft | 409 kts | 154° |
| 2026-04-24 20:14 | -16.47739 | -47.66695 | 19757 ft | 411 kts | 154° |
| 2026-04-24 20:15 | -16.50309 | -47.65455 | 20140 ft | 414 kts | 154° |
| 2026-04-24 20:15 | -16.52943 | -47.64183 | 20533 ft | 417 kts | 154° |
| 2026-04-24 20:15 | -16.55586 | -47.62908 | 20938 ft | 420 kts | 154° |
| 2026-04-24 20:15 | -16.58248 | -47.61622 | 21338 ft | 422 kts | 154° |
| 2026-04-24 20:16 | -16.60919 | -47.60332 | 21734 ft | 425 kts | 154° |
| 2026-04-24 20:16 | -16.63614 | -47.59030 | 22099 ft | 428 kts | 154° |
| 2026-04-24 20:16 | -16.66317 | -47.57723 | 22483 ft | 430 kts | 154° |
| 2026-04-24 20:16 | -16.69040 | -47.56406 | 22851 ft | 432 kts | 154° |
| 2026-04-24 20:17 | -16.71770 | -47.55084 | 23200 ft | 435 kts | 154° |
| 2026-04-24 20:17 | -16.77295 | -47.52410 | 23828 ft | 440 kts | 154° |
| 2026-04-24 20:17 | -16.80078 | -47.51064 | 24147 ft | 441 kts | 154° |
| 2026-04-24 20:18 | -16.81924 | -47.50170 | 24377 ft | 441 kts | 154° |
| 2026-04-24 20:18 | -16.85653 | -47.48365 | 24822 ft | 442 kts | 154° |
| 2026-04-24 20:18 | -16.88446 | -47.47011 | 25130 ft | 443 kts | 154° |
| 2026-04-24 20:18 | -16.91245 | -47.45655 | 25427 ft | 444 kts | 154° |
| 2026-04-24 20:19 | -16.94023 | -47.44307 | 25712 ft | 446 kts | 154° |
| 2026-04-24 20:19 | -16.96842 | -47.42940 | 25976 ft | 448 kts | 154° |
| 2026-04-24 20:19 | -16.99672 | -47.41566 | 26250 ft | 449 kts | 154° |
| 2026-04-24 20:19 | -17.02512 | -47.40188 | 26543 ft | 450 kts | 154° |
| 2026-04-24 20:20 | -17.05353 | -47.38809 | 26827 ft | 451 kts | 154° |
| 2026-04-24 20:20 | -17.08205 | -47.37423 | 27110 ft | 452 kts | 154° |
| 2026-04-24 20:20 | -17.11069 | -47.36031 | 27379 ft | 454 kts | 154° |
| 2026-04-24 20:20 | -17.13940 | -47.34636 | 27638 ft | 455 kts | 154° |
| 2026-04-24 20:21 | -17.16819 | -47.33236 | 27901 ft | 457 kts | 154° |
| 2026-04-24 20:21 | -17.19714 | -47.31827 | 28147 ft | 458 kts | 155° |
| 2026-04-24 20:21 | -17.22608 | -47.30419 | 28407 ft | 460 kts | 155° |
| 2026-04-24 20:21 | -17.25514 | -47.29005 | 28656 ft | 461 kts | 155° |
| 2026-04-24 20:22 | -17.28427 | -47.27586 | 28907 ft | 462 kts | 155° |
| 2026-04-24 20:22 | -17.31350 | -47.26162 | 29144 ft | 463 kts | 155° |
| 2026-04-24 20:22 | -17.34275 | -47.24737 | 29376 ft | 465 kts | 155° |
| 2026-04-24 20:22 | -17.37211 | -47.23306 | 29605 ft | 466 kts | 155° |
| 2026-04-24 20:23 | -17.40159 | -47.21868 | 29838 ft | 467 kts | 155° |
| 2026-04-24 20:23 | -17.43072 | -47.20447 | 30073 ft | 468 kts | 155° |
| 2026-04-24 20:23 | -17.46022 | -47.19007 | 30355 ft | 467 kts | 155° |
| 2026-04-24 20:23 | -17.48960 | -47.17573 | 30676 ft | 465 kts | 155° |
| 2026-04-24 20:24 | -17.50912 | -47.16628 | 30868 ft | 464 kts | 156° |
| 2026-04-24 20:24 | -17.53908 | -47.15375 | 31139 ft | 464 kts | 159° |
| 2026-04-24 20:24 | -17.57984 | -47.13881 | 31490 ft | 464 kts | 161° |
| 2026-04-24 20:24 | -17.60013 | -47.13169 | 31677 ft | 464 kts | 161° |
| 2026-04-24 20:25 | -17.63069 | -47.12102 | 31979 ft | 463 kts | 161° |
| 2026-04-24 20:25 | -17.66129 | -47.11023 | 32256 ft | 463 kts | 161° |
| 2026-04-24 20:25 | -17.69175 | -47.09935 | 32558 ft | 462 kts | 161° |
| 2026-04-24 20:25 | -17.72215 | -47.08836 | 32870 ft | 461 kts | 161° |
| 2026-04-24 20:26 | -17.75242 | -47.07734 | 33195 ft | 460 kts | 161° |
| 2026-04-24 20:26 | -17.78261 | -47.06629 | 33498 ft | 459 kts | 161° |
| 2026-04-24 20:26 | -17.81280 | -47.05521 | 33791 ft | 459 kts | 160° |
| 2026-04-24 20:26 | -17.84290 | -47.04416 | 34093 ft | 458 kts | 160° |
| 2026-04-24 20:27 | -17.87303 | -47.03310 | 34379 ft | 457 kts | 161° |
| 2026-04-24 20:27 | -17.90302 | -47.02208 | 34654 ft | 456 kts | 161° |
| 2026-04-24 20:27 | -17.93294 | -47.01110 | 34887 ft | 456 kts | 161° |
| 2026-04-24 20:27 | -17.96288 | -47.00011 | 35103 ft | 456 kts | 161° |
| 2026-04-24 20:28 | -17.99247 | -46.98924 | 35344 ft | 456 kts | 161° |
| 2026-04-24 20:28 | -18.02246 | -46.97822 | 35597 ft | 455 kts | 161° |
| 2026-04-24 20:28 | -18.05236 | -46.96723 | 35837 ft | 455 kts | 160° |
| 2026-04-24 20:28 | -18.08227 | -46.95624 | 36019 ft | 456 kts | 160° |
| 2026-04-24 20:29 | -18.14247 | -46.93409 | 36042 ft | 459 kts | 161° |
| 2026-04-24 20:29 | -18.20264 | -46.91194 | 36033 ft | 455 kts | 161° |
| 2026-04-24 20:30 | -18.26218 | -46.89001 | 36049 ft | 452 kts | 161° |
| 2026-04-24 20:30 | -18.32146 | -46.86816 | 36053 ft | 450 kts | 161° |
| 2026-04-24 20:31 | -18.38019 | -46.84649 | 36060 ft | 449 kts | 161° |
| 2026-04-24 20:31 | -18.43926 | -46.82468 | 36063 ft | 450 kts | 161° |
| 2026-04-24 20:32 | -18.49849 | -46.80280 | 36068 ft | 452 kts | 161° |
| 2026-04-24 20:32 | -18.55794 | -46.78082 | 36067 ft | 453 kts | 161° |
| 2026-04-24 20:33 | -18.61759 | -46.75875 | 36073 ft | 455 kts | 161° |
| 2026-04-24 20:33 | -18.67712 | -46.73671 | 36070 ft | 457 kts | 161° |
| 2026-04-24 20:34 | -18.73723 | -46.71443 | 36071 ft | 458 kts | 161° |
| 2026-04-24 20:34 | -18.79744 | -46.69209 | 36073 ft | 459 kts | 162° |
| 2026-04-24 20:35 | -18.85782 | -46.66968 | 36071 ft | 459 kts | 162° |
| 2026-04-24 20:35 | -18.91817 | -46.64727 | 36072 ft | 459 kts | 162° |
| 2026-04-24 20:36 | -18.97820 | -46.62428 | 36070 ft | 458 kts | 160° |
| 2026-04-24 20:36 | -19.03772 | -46.60014 | 36070 ft | 457 kts | 160° |
| 2026-04-24 20:37 | -19.09703 | -46.57599 | 36072 ft | 456 kts | 160° |
| 2026-04-24 20:37 | -19.15591 | -46.55218 | 36070 ft | 456 kts | 160° |
| 2026-04-24 20:38 | -19.21510 | -46.52831 | 36076 ft | 455 kts | 160° |
| 2026-04-24 20:38 | -19.27429 | -46.50444 | 36074 ft | 454 kts | 160° |
| 2026-04-24 20:39 | -19.33342 | -46.48057 | 36081 ft | 454 kts | 160° |
| 2026-04-24 20:39 | -19.39251 | -46.45669 | 36084 ft | 454 kts | 160° |
| 2026-04-24 20:40 | -19.45156 | -46.43281 | 36085 ft | 454 kts | 161° |
| 2026-04-24 20:40 | -19.51030 | -46.40903 | 36085 ft | 455 kts | 161° |
| 2026-04-24 20:41 | -19.56952 | -46.38504 | 36091 ft | 455 kts | 161° |
| 2026-04-24 20:41 | -19.62874 | -46.36103 | 36088 ft | 456 kts | 161° |
| 2026-04-24 20:42 | -19.68796 | -46.33700 | 36088 ft | 456 kts | 161° |
| 2026-04-24 20:42 | -19.74731 | -46.31291 | 36091 ft | 456 kts | 161° |
| 2026-04-24 20:43 | -19.80657 | -46.28884 | 36092 ft | 456 kts | 161° |
| 2026-04-24 20:43 | -19.86597 | -46.26470 | 36103 ft | 457 kts | 161° |
| 2026-04-24 20:44 | -19.92530 | -46.24056 | 36088 ft | 457 kts | 161° |
| 2026-04-24 20:44 | -19.98430 | -46.21654 | 36088 ft | 457 kts | 161° |
| 2026-04-24 20:45 | -20.04370 | -46.19233 | 36082 ft | 457 kts | 161° |
| 2026-04-24 20:45 | -20.10306 | -46.16812 | 36078 ft | 456 kts | 161° |
| 2026-04-24 20:46 | -20.16227 | -46.14394 | 36079 ft | 456 kts | 161° |
| 2026-04-24 20:46 | -20.22152 | -46.11974 | 36082 ft | 455 kts | 161° |
| 2026-04-24 20:47 | -20.28067 | -46.09555 | 36081 ft | 455 kts | 161° |
| 2026-04-24 20:47 | -20.33980 | -46.07135 | 36073 ft | 455 kts | 161° |
| 2026-04-24 20:48 | -20.36933 | -46.05926 | 36074 ft | 455 kts | 161° |
| 2026-04-24 20:48 | -20.45920 | -46.02243 | 36074 ft | 455 kts | 161° |
| 2026-04-24 20:49 | -20.51833 | -45.99817 | 36078 ft | 455 kts | 161° |
| 2026-04-24 20:49 | -20.57702 | -45.97407 | 36078 ft | 455 kts | 161° |
| 2026-04-24 20:50 | -20.63617 | -45.94976 | 36079 ft | 455 kts | 161° |
| 2026-04-24 20:50 | -20.69538 | -45.92541 | 36078 ft | 456 kts | 161° |
| 2026-04-24 20:51 | -20.75459 | -45.90102 | 36076 ft | 456 kts | 161° |
| 2026-04-24 20:51 | -20.81382 | -45.87656 | 36076 ft | 456 kts | 161° |
| 2026-04-24 20:52 | -20.87474 | -45.85938 | 36082 ft | 450 kts | 178° |
| 2026-04-24 20:52 | -20.93645 | -45.86522 | 36084 ft | 445 kts | 195° |
| 2026-04-24 20:53 | -20.99624 | -45.88073 | 36083 ft | 445 kts | 196° |
| 2026-04-24 20:53 | -21.05652 | -45.89639 | 36070 ft | 446 kts | 195° |
| 2026-04-24 20:54 | -21.11694 | -45.91163 | 36072 ft | 446 kts | 195° |
| 2026-04-24 20:54 | -21.17735 | -45.92668 | 36075 ft | 446 kts | 195° |
| 2026-04-24 20:55 | -21.23787 | -45.94175 | 35865 ft | 450 kts | 195° |
| 2026-04-24 20:55 | -21.26847 | -45.94939 | 35312 ft | 452 kts | 195° |
| 2026-04-24 20:55 | -21.29908 | -45.95703 | 34686 ft | 451 kts | 195° |
| 2026-04-24 20:56 | -21.32971 | -45.96468 | 34032 ft | 452 kts | 195° |
| 2026-04-24 20:56 | -21.36050 | -45.97238 | 33377 ft | 452 kts | 195° |
| 2026-04-24 20:56 | -21.39090 | -45.97997 | 32889 ft | 447 kts | 195° |
| 2026-04-24 20:56 | -21.42075 | -45.98744 | 32404 ft | 443 kts | 195° |
| 2026-04-24 20:57 | -21.45061 | -45.99491 | 31923 ft | 439 kts | 195° |
| 2026-04-24 20:57 | -21.48027 | -46.00233 | 31461 ft | 435 kts | 196° |
| 2026-04-24 20:57 | -21.50968 | -46.00969 | 30997 ft | 432 kts | 196° |
| 2026-04-24 20:57 | -21.53888 | -46.01700 | 30551 ft | 429 kts | 196° |
| 2026-04-24 20:58 | -21.56786 | -46.02425 | 30066 ft | 426 kts | 196° |
| 2026-04-24 20:58 | -21.59666 | -46.03146 | 29550 ft | 423 kts | 196° |
| 2026-04-24 20:58 | -21.62530 | -46.03864 | 29044 ft | 420 kts | 196° |
| 2026-04-24 20:58 | -21.65359 | -46.04573 | 28559 ft | 416 kts | 196° |
| 2026-04-24 20:59 | -21.68167 | -46.05278 | 28090 ft | 412 kts | 196° |
| 2026-04-24 20:59 | -21.70945 | -46.05975 | 27619 ft | 409 kts | 196° |
| 2026-04-24 20:59 | -21.73668 | -46.06659 | 27176 ft | 405 kts | 196° |
| 2026-04-24 20:59 | -21.76412 | -46.07349 | 26705 ft | 402 kts | 196° |
| 2026-04-24 21:00 | -21.79124 | -46.08031 | 26276 ft | 399 kts | 195° |
| 2026-04-24 21:00 | -21.81820 | -46.08708 | 25814 ft | 397 kts | 195° |
| 2026-04-24 21:00 | -21.84509 | -46.09385 | 25351 ft | 395 kts | 195° |
| 2026-04-24 21:00 | -21.87185 | -46.10059 | 24895 ft | 394 kts | 195° |
| 2026-04-24 21:01 | -21.89850 | -46.10730 | 24443 ft | 393 kts | 195° |
| 2026-04-24 21:01 | -21.92507 | -46.11400 | 23985 ft | 392 kts | 195° |
| 2026-04-24 21:01 | -21.95161 | -46.12068 | 23498 ft | 391 kts | 195° |
| 2026-04-24 21:01 | -21.97802 | -46.12734 | 23004 ft | 389 kts | 195° |
| 2026-04-24 21:02 | -22.00438 | -46.13398 | 22544 ft | 387 kts | 195° |
| 2026-04-24 21:02 | -22.03047 | -46.14056 | 22078 ft | 384 kts | 195° |
| 2026-04-24 21:02 | -22.05603 | -46.14701 | 21650 ft | 382 kts | 195° |
| 2026-04-24 21:02 | -22.08188 | -46.15353 | 21208 ft | 380 kts | 195° |
| 2026-04-24 21:03 | -22.10751 | -46.16000 | 20774 ft | 377 kts | 195° |
| 2026-04-24 21:03 | -22.13300 | -46.16644 | 20320 ft | 376 kts | 195° |
| 2026-04-24 21:03 | -22.15850 | -46.17289 | 19880 ft | 375 kts | 195° |
| 2026-04-24 21:03 | -22.18389 | -46.17931 | 19434 ft | 374 kts | 195° |
| 2026-04-24 21:04 | -22.20916 | -46.18571 | 19000 ft | 373 kts | 195° |
| 2026-04-24 21:04 | -22.23448 | -46.19211 | 18561 ft | 373 kts | 195° |
| 2026-04-24 21:04 | -22.25972 | -46.19850 | 18091 ft | 372 kts | 195° |
| 2026-04-24 21:04 | -22.28482 | -46.20485 | 17650 ft | 369 kts | 195° |
| 2026-04-24 21:05 | -22.30946 | -46.21100 | 17230 ft | 367 kts | 193° |
| 2026-04-24 21:05 | -22.33480 | -46.21217 | 16929 ft | 364 kts | 174° |
| 2026-04-24 21:05 | -22.35972 | -46.20860 | 16721 ft | 359 kts | 173° |
| 2026-04-24 21:05 | -22.38443 | -46.20494 | 16404 ft | 357 kts | 174° |
| 2026-04-24 21:06 | -22.40896 | -46.20139 | 16211 ft | 352 kts | 174° |
| 2026-04-24 21:06 | -22.43320 | -46.19798 | 16011 ft | 353 kts | 174° |
| 2026-04-24 21:06 | -22.44944 | -46.19575 | 15882 ft | 357 kts | 174° |
| 2026-04-24 21:06 | -22.48266 | -46.19125 | 15585 ft | 360 kts | 174° |
| 2026-04-24 21:07 | -22.50737 | -46.18793 | 15364 ft | 356 kts | 174° |
| 2026-04-24 21:07 | -22.53181 | -46.18466 | 15146 ft | 353 kts | 174° |
| 2026-04-24 21:07 | -22.54796 | -46.18249 | 14993 ft | 352 kts | 174° |
| 2026-04-24 21:07 | -22.57219 | -46.17925 | 14772 ft | 350 kts | 174° |
| 2026-04-24 21:08 | -22.60410 | -46.17498 | 14480 ft | 347 kts | 174° |
| 2026-04-24 21:08 | -22.62806 | -46.17177 | 14268 ft | 346 kts | 174° |
| 2026-04-24 21:08 | -22.64410 | -46.16890 | 14105 ft | 347 kts | 166° |
| 2026-04-24 21:08 | -22.66658 | -46.15901 | 13794 ft | 350 kts | 155° |
| 2026-04-24 21:09 | -22.68849 | -46.14731 | 13437 ft | 352 kts | 154° |
| 2026-04-24 21:09 | -22.71037 | -46.13542 | 13092 ft | 351 kts | 154° |
| 2026-04-24 21:09 | -22.73183 | -46.12383 | 12771 ft | 346 kts | 155° |
| 2026-04-24 21:09 | -22.75332 | -46.11237 | 12446 ft | 341 kts | 155° |
| 2026-04-24 21:10 | -22.77454 | -46.10116 | 12128 ft | 337 kts | 155° |
| 2026-04-24 21:10 | -22.79546 | -46.09018 | 11821 ft | 333 kts | 155° |
| 2026-04-24 21:10 | -22.81623 | -46.07932 | 11517 ft | 330 kts | 155° |
| 2026-04-24 21:10 | -22.83682 | -46.06857 | 11221 ft | 327 kts | 155° |
| 2026-04-24 21:11 | -22.85723 | -46.05791 | 10917 ft | 323 kts | 155° |
| 2026-04-24 21:11 | -22.87735 | -46.04741 | 10627 ft | 319 kts | 155° |
| 2026-04-24 21:11 | -22.89725 | -46.03701 | 10336 ft | 316 kts | 155° |
| 2026-04-24 21:11 | -22.91696 | -46.02672 | 10039 ft | 308 kts | 155° |
| 2026-04-24 21:12 | -22.93560 | -46.01697 | 9959 ft | 289 kts | 155° |
| 2026-04-24 21:12 | -22.95354 | -46.00759 | 9522 ft | 287 kts | 155° |
| 2026-04-24 21:12 | -22.97127 | -45.99828 | 9202 ft | 281 kts | 153° |
| 2026-04-24 21:12 | -22.98633 | -45.98502 | 9061 ft | 279 kts | 129° |
| 2026-04-24 21:13 | -22.99827 | -45.96851 | 8998 ft | 278 kts | 128° |
| 2026-04-24 21:13 | -23.01019 | -45.95187 | 8925 ft | 281 kts | 128° |
| 2026-04-24 21:13 | -23.02227 | -45.93505 | 8853 ft | 284 kts | 128° |
| 2026-04-24 21:13 | -23.03447 | -45.91809 | 8770 ft | 283 kts | 128° |
| 2026-04-24 21:14 | -23.04658 | -45.90132 | 8676 ft | 281 kts | 128° |
| 2026-04-24 21:14 | -23.05861 | -45.88468 | 8599 ft | 280 kts | 128° |
| 2026-04-24 21:14 | -23.07062 | -45.86810 | 8541 ft | 278 kts | 128° |
| 2026-04-24 21:14 | -23.08260 | -45.85156 | 8469 ft | 279 kts | 128° |
| 2026-04-24 21:15 | -23.09459 | -45.83500 | 8397 ft | 279 kts | 128° |
| 2026-04-24 21:15 | -23.10662 | -45.81839 | 8324 ft | 280 kts | 128° |
| 2026-04-24 21:15 | -23.11869 | -45.80173 | 8257 ft | 281 kts | 128° |
| 2026-04-24 21:15 | -23.13079 | -45.78502 | 8185 ft | 282 kts | 128° |
| 2026-04-24 21:16 | -23.14293 | -45.76826 | 8073 ft | 284 kts | 128° |
| 2026-04-24 21:16 | -23.15523 | -45.75126 | 7903 ft | 287 kts | 128° |
| 2026-04-24 21:16 | -23.16737 | -45.73447 | 7793 ft | 282 kts | 128° |
| 2026-04-24 21:16 | -23.17918 | -45.71814 | 7746 ft | 267 kts | 128° |
| 2026-04-24 21:17 | -23.19034 | -45.70271 | 7640 ft | 253 kts | 128° |
| 2026-04-24 21:17 | -23.20092 | -45.68807 | 7543 ft | 240 kts | 128° |
| 2026-04-24 21:17 | -23.21100 | -45.67413 | 7466 ft | 228 kts | 128° |
| 2026-04-24 21:17 | -23.22059 | -45.66086 | 7268 ft | 221 kts | 129° |
| 2026-04-24 21:18 | -23.22988 | -45.64801 | 7145 ft | 213 kts | 129° |
| 2026-04-24 21:18 | -23.24143 | -45.63836 | 7017 ft | 210 kts | 166° |
| 2026-04-24 21:18 | -23.25590 | -45.63846 | 6896 ft | 213 kts | 201° |
| 2026-04-24 21:18 | -23.26844 | -45.64648 | 6728 ft | 207 kts | 220° |
| 2026-04-24 21:19 | -23.27937 | -45.65637 | 6505 ft | 200 kts | 223° |
| 2026-04-24 21:19 | -23.28979 | -45.66602 | 6304 ft | 193 kts | 222° |
| 2026-04-24 21:19 | -23.29988 | -45.67529 | 6133 ft | 187 kts | 223° |
| 2026-04-24 21:19 | -23.30975 | -45.68431 | 5960 ft | 185 kts | 221° |
| 2026-04-24 21:20 | -23.32951 | -45.70226 | 5649 ft | 187 kts | 221° |
| 2026-04-24 21:20 | -23.33943 | -45.71130 | 5476 ft | 185 kts | 224° |
| 2026-04-24 21:20 | -23.34466 | -45.71877 | 5354 ft | 185 kts | 250° |
| 2026-04-24 21:21 | -23.34342 | -45.73682 | 5093 ft | 191 kts | 305° |
| 2026-04-24 21:21 | -23.33767 | -45.74381 | 4951 ft | 185 kts | 315° |
| 2026-04-24 21:21 | -23.31564 | -45.76774 | 4293 ft | 172 kts | 315° |
| 2026-04-24 21:22 | -23.30721 | -45.77689 | 4140 ft | 167 kts | 316° |
| 2026-04-24 21:22 | -23.29925 | -45.78554 | 3914 ft | 156 kts | 316° |
| 2026-04-24 21:22 | -23.29157 | -45.79387 | 3690 ft | 155 kts | 316° |
| 2026-04-24 21:22 | -23.28656 | -45.79930 | 3548 ft | 153 kts | 316° |
| 2026-04-24 21:23 | -23.27646 | -45.81024 | 3263 ft | 153 kts | 316° |
| 2026-04-24 21:23 | -23.26894 | -45.81842 | 3068 ft | 153 kts | 316° |
| 2026-04-24 21:23 | -23.26125 | -45.82661 | 2886 ft | 156 kts | 316° |
| 2026-04-24 21:23 | -23.25354 | -45.83505 | 2627 ft | 156 kts | 314° |
| 2026-04-24 21:24 | -23.24852 | -45.84066 | 2452 ft | 156 kts | 315° |
| 2026-04-24 21:24 | -23.23868 | -45.85128 | 2168 ft | 149 kts | 315° |
| 2026-04-24 21:24 | -23.23161 | -45.85903 | 2052 ft | 135 kts | 314° |
| 2026-04-24 21:24 | -23.22597 | -45.86512 | 2056 ft | 92 kts | 315° |
| 2026-04-24 21:25 | -23.22239 | -45.86899 | 2052 ft | 68 kts | 315° |
| 2026-04-24 21:25 | -23.22020 | -45.87136 | 2053 ft | 17 kts | 315° |
| 2026-04-24 21:25 | -23.21954 | -45.87164 | 2053 ft | 10 kts | 19° |
| 2026-04-24 21:25 | -23.21921 | -45.87102 | 2055 ft | 10 kts | 98° |
| 2026-04-24 21:26 | -23.21957 | -45.87039 | 2056 ft | 10 kts | 125° |
| 2026-04-24 21:26 | -23.21982 | -45.86999 | 2057 ft | 10 kts | 125° |
| 2026-04-24 21:26 | -23.22020 | -45.86940 | 2059 ft | 9 kts | 125° |
| 2026-04-24 21:26 | -23.22057 | -45.86883 | 2061 ft | 9 kts | 125° |
| 2026-04-24 21:27 | -23.22092 | -45.86827 | 2063 ft | 9 kts | 124° |
| 2026-04-24 21:27 | -23.22127 | -45.86773 | 2064 ft | 9 kts | 126° |
| 2026-04-24 21:27 | -23.22167 | -45.86726 | 2064 ft | 8 kts | 134° |
| 2026-04-24 21:27 | -23.22208 | -45.86681 | 2064 ft | 8 kts | 134° |
| 2026-04-24 21:28 | -23.22247 | -45.86638 | 2064 ft | 8 kts | 134° |
| 2026-04-24 21:28 | -23.22284 | -45.86597 | 2064 ft | 8 kts | 134° |
| 2026-04-24 21:28 | -23.22321 | -45.86557 | 2064 ft | 7 kts | 135° |
| 2026-04-24 21:28 | -23.22357 | -45.86518 | 2064 ft | 7 kts | 135° |
| 2026-04-24 21:29 | -23.22391 | -45.86481 | 2064 ft | 7 kts | 135° |
| 2026-04-24 21:29 | -23.22425 | -45.86444 | 2064 ft | 7 kts | 135° |
| 2026-04-24 21:29 | -23.22458 | -45.86408 | 2064 ft | 7 kts | 135° |
| 2026-04-24 21:29 | -23.22490 | -45.86373 | 2064 ft | 7 kts | 135° |
| 2026-04-24 21:30 | -23.22522 | -45.86338 | 2064 ft | 6 kts | 134° |
| 2026-04-24 21:30 | -23.22553 | -45.86304 | 2064 ft | 6 kts | 134° |
| 2026-04-24 21:30 | -23.22583 | -45.86270 | 2064 ft | 6 kts | 128° |
| 2026-04-24 21:30 | -23.22585 | -45.86250 | 2064 ft | 0 kts | 83° |
| 2026-04-24 21:31 | -23.22582 | -45.86247 | 2064 ft | 2 kts | 52° |
| 2026-04-24 21:31 | -23.22571 | -45.86235 | 2064 ft | 3 kts | 46° |
| 2026-04-24 21:31 | -23.22565 | -45.86228 | 2064 ft | 0 kts | 46° |